地図

経路データ

SID SEASON NUMBER BASIN SUBBASIN NAME ISO_TIME NATURE LAT LON WMO_WIND WMO_PRES WMO_AGENCY TRACK_TYPE DIST2LAND LANDFALL IFLAG USA_AGENCY USA_ATCF_ID USA_LAT USA_LON USA_RECORD USA_STATUS USA_WIND USA_PRES USA_SSHS USA_R34_NE USA_R34_SE USA_R34_SW USA_R34_NW USA_R50_NE USA_R50_SE USA_R50_SW USA_R50_NW USA_R64_NE USA_R64_SE USA_R64_SW USA_R64_NW USA_POCI USA_ROCI USA_RMW USA_EYE TOKYO_LAT TOKYO_LON TOKYO_GRADE TOKYO_WIND TOKYO_PRES TOKYO_R50_DIR TOKYO_R50_LONG TOKYO_R50_SHORT TOKYO_R30_DIR TOKYO_R30_LONG TOKYO_R30_SHORT TOKYO_LAND CMA_LAT CMA_LON CMA_CAT CMA_WIND CMA_PRES HKO_LAT HKO_LON HKO_CAT HKO_WIND HKO_PRES NEWDELHI_LAT NEWDELHI_LON NEWDELHI_GRADE NEWDELHI_WIND NEWDELHI_PRES NEWDELHI_CI NEWDELHI_DP NEWDELHI_POCI REUNION_LAT REUNION_LON REUNION_TYPE REUNION_WIND REUNION_PRES REUNION_TNUM REUNION_CI REUNION_RMW REUNION_R34_NE REUNION_R34_SE REUNION_R34_SW REUNION_R34_NW REUNION_R50_NE REUNION_R50_SE REUNION_R50_SW REUNION_R50_NW REUNION_R64_NE REUNION_R64_SE REUNION_R64_SW REUNION_R64_NW BOM_LAT BOM_LON BOM_TYPE BOM_WIND BOM_PRES BOM_TNUM BOM_CI BOM_RMW BOM_R34_NE BOM_R34_SE BOM_R34_SW BOM_R34_NW BOM_R50_NE BOM_R50_SE BOM_R50_SW BOM_R50_NW BOM_R64_NE BOM_R64_SE BOM_R64_SW BOM_R64_NW BOM_ROCI BOM_POCI BOM_EYE BOM_POS_METHOD BOM_PRES_METHOD NADI_LAT NADI_LON NADI_CAT NADI_WIND NADI_PRES WELLINGTON_LAT WELLINGTON_LON WELLINGTON_WIND WELLINGTON_PRES DS824_LAT DS824_LON DS824_STAGE DS824_WIND DS824_PRES TD9636_LAT TD9636_LON TD9636_STAGE TD9636_WIND TD9636_PRES TD9635_LAT TD9635_LON TD9635_WIND TD9635_PRES TD9635_ROCI NEUMANN_LAT NEUMANN_LON NEUMANN_CLASS NEUMANN_WIND NEUMANN_PRES MLC_LAT MLC_LON MLC_CLASS MLC_WIND MLC_PRES USA_GUST BOM_GUST BOM_GUST_PER REUNION_GUST REUNION_GUST_PER USA_SEAHGT USA_SEARAD_NE USA_SEARAD_SE USA_SEARAD_SW USA_SEARAD_NW STORM_SPEED STORM_DIR
1982036S16060 1982 11 SI MM GABRIELLE 1982-02-05 00:00:00 TS -15.9000 60.3000 reunion main 544 515 _____O______O_ -1 -15.9000 60.3000 99 9.90000 -15.9000 60.3000 TC 40 13 269
1982036S16060 1982 11 SI MM GABRIELLE 1982-02-05 03:00:00 TS -15.9105 59.6294 main 511 468 _____P______P_ -1 -15.9105 59.6294 99 -15.9105 59.6294 TC 37 13 261
1982036S16060 1982 11 SI MM GABRIELLE 1982-02-05 06:00:00 TS -16.1000 59.0000 28 997 reunion main 468 411 _____O______O_ -1 -16.1000 59.0000 2 28 997 2.50000 2.50000 -16.1000 59.0000 TC 35 997 13 240
1982036S16060 1982 11 SI MM GABRIELLE 1982-02-05 09:00:00 TS -16.5574 58.4482 main 398 348 _____P______P_ -1 -16.5574 58.4482 2 -16.5574 58.4482 TC 40 13 227
1982036S16060 1982 11 SI MM GABRIELLE 1982-02-05 12:00:00 TS -17.0000 58.0000 reunion main 348 346 _____O______O_ -1 -17.0000 58.0000 99 9.90000 -17.0000 58.0000 TC 45 9 239
1982036S16060 1982 11 SI MM GABRIELLE 1982-02-05 15:00:00 TS -17.0049 57.6542 main 346 335 _____P______P_ -1 -17.0049 57.6542 99 -17.0049 57.6542 TC 47 6 260
1982036S16060 1982 11 SI MM GABRIELLE 1982-02-05 18:00:00 TS -17.1000 57.4000 reunion main 335 270 _____O______O_ -1 -17.1000 57.4000 99 9.90000 -17.1000 57.4000 TC 50 8 209
1982036S16060 1982 11 SI MM GABRIELLE 1982-02-05 21:00:00 TS -17.7448 57.2295 main 270 175 _____P______P_ -1 -17.7448 57.2295 99 -17.7448 57.2295 TC 52 16 194
1982036S16060 1982 11 SI MM GABRIELLE 1982-02-06 00:00:00 TS -18.6000 57.0000 reunion main 175 122 _____O______O_ -1 -18.6000 57.0000 99 9.90000 -18.6000 57.0000 TC 55 18 200
1982036S16060 1982 11 SI MM GABRIELLE 1982-02-06 03:00:00 TS -19.4097 56.5903 main 122 105 _____P______P_ -1 -19.4097 56.5903 99 -19.4097 56.5903 TC 55 18 212
1982036S16060 1982 11 SI MM GABRIELLE 1982-02-06 06:00:00 TS -20.1000 56.0000 44 984 reunion main 105 56 _____O______O_ -1 -20.1000 56.0000 3 44 984 3.50000 3.50000 -20.1000 56.0000 TC 55 984 17 231
1982036S16060 1982 11 SI MM GABRIELLE 1982-02-06 09:00:00 TS -20.4886 55.1473 main 59 54 _____P______P_ -1 -20.4886 55.1473 3 -20.4886 55.1473 TC 60 17 245
1982036S16060 1982 11 SI MM GABRIELLE 1982-02-06 12:00:00 TS -20.8000 54.4000 reunion main 89 89 _____O______O_ -1 -20.8000 54.4000 99 9.90000 -20.8000 54.4000 TC 65 12 230
1982036S16060 1982 11 SI MM GABRIELLE 1982-02-06 15:00:00 TS -21.2768 54.1517 main 106 106 _____P______P_ -1 -21.2768 54.1517 99 -21.2768 54.1517 TC 65 10 196
1982036S16060 1982 11 SI MM GABRIELLE 1982-02-06 18:00:00 TS -21.8000 54.1000 reunion main 136 136 _____O______O_ -1 -21.8000 54.1000 99 9.90000 -21.8000 54.1000 TC 65 10 189
1982036S16060 1982 11 SI MM GABRIELLE 1982-02-06 21:00:00 TS -22.2848 53.9869 main 174 174 _____P______P_ -1 -22.2848 53.9869 99 -22.2848 53.9869 TC 65 10 196
1982036S16060 1982 11 SI MM GABRIELLE 1982-02-07 00:00:00 TS -22.8000 53.8000 reunion main 228 228 _____O______O_ -1 -22.8000 53.8000 99 9.90000 -22.8000 53.8000 TC 65 13 204
1982036S16060 1982 11 SI MM GABRIELLE 1982-02-07 03:00:00 TS -23.4602 53.4310 main 314 314 _____P______P_ -1 -23.4602 53.4310 99 -23.4602 53.4310 TC 60 14 211
1982036S16060 1982 11 SI MM GABRIELLE 1982-02-07 06:00:00 ET -24.0000 53.0000 44 984 reunion main 383 383 _____O______O_ -1 -24.0000 53.0000 5 44 984 3.50000 3.50000 -24.0000 53.0000 EX 55 984 10 226
1982036S16060 1982 11 SI MM GABRIELLE 1982-02-07 09:00:00 ET -24.1674 52.6342 main 426 426 _____P______P_ -1 -24.1674 52.6342 5 -24.1674 52.6342 EX 60 7 253
1982036S16060 1982 11 SI MM GABRIELLE 1982-02-07 12:00:00 TS -24.2000 52.3000 reunion main 446 446 _____O______O_ -1 -24.2000 52.3000 99 9.90000 -24.2000 52.3000 TC 65 6 253
1982036S16060 1982 11 SI MM GABRIELLE 1982-02-07 15:00:00 TS -24.3422 52.0149 main 448 424 _____P______P_ -1 -24.3422 52.0149 99 -24.3422 52.0149 TC 60 6 241
1982036S16060 1982 11 SI MM GABRIELLE 1982-02-07 18:00:00 TS -24.5000 51.7000 reunion main 424 389 _____O______O_ -1 -24.5000 51.7000 99 9.90000 -24.5000 51.7000 TC 55 7 248
1982036S16060 1982 11 SI MM GABRIELLE 1982-02-07 21:00:00 TS -24.6126 51.2646 main 389 345 _____P______P_ -1 -24.6126 51.2646 99 -24.6126 51.2646 TC 55 9 250
1982036S16060 1982 11 SI MM GABRIELLE 1982-02-08 00:00:00 TS -24.8000 50.8000 reunion main 345 317 _____O______O_ -1 -24.8000 50.8000 99 9.90000 -24.8000 50.8000 TC 55 10 236
1982036S16060 1982 11 SI MM GABRIELLE 1982-02-08 03:00:00 TS -25.1776 50.3555 main 322 293 _____P______P_ -1 -25.1776 50.3555 99 -25.1776 50.3555 TC 55 11 222
1982036S16060 1982 11 SI MM GABRIELLE 1982-02-08 06:00:00 ET -25.6000 50.0000 44 984 reunion main 298 285 _____O______O_ -1 -25.6000 50.0000 5 44 984 3.50000 3.50000 -25.6000 50.0000 EX 55 984 9 214
1982036S16060 1982 11 SI MM GABRIELLE 1982-02-08 09:00:00 ET -25.8998 49.8120 main 288 288 _____P______P_ -1 -25.8998 49.8120 5 -25.8998 49.8120 EX 60 7 204
1982036S16060 1982 11 SI MM GABRIELLE 1982-02-08 12:00:00 TS -26.2000 49.7000 reunion main 292 289 _____O______O_ -1 -26.2000 49.7000 99 9.90000 -26.2000 49.7000 TC 65 7 198
1982036S16060 1982 11 SI MM GABRIELLE 1982-02-08 15:00:00 TS -26.5925 49.5574 main 307 299 _____P______P_ -1 -26.5925 49.5574 99 -26.5925 49.5574 TC 62 8 199
1982036S16060 1982 11 SI MM GABRIELLE 1982-02-08 18:00:00 TS -27.0000 49.4000 reunion main 320 320 _____O______O_ -1 -27.0000 49.4000 99 9.90000 -27.0000 49.4000 TC 60 8 201
1982036S16060 1982 11 SI MM GABRIELLE 1982-02-08 21:00:00 TS -27.3499 49.2296 main 329 329 _____P______P_ -1 -27.3499 49.2296 99 -27.3499 49.2296 TC 57 8 207
1982036S16060 1982 11 SI MM GABRIELLE 1982-02-09 00:00:00 TS -27.7000 49.0000 reunion main 352 352 _____O______O_ -1 -27.7000 49.0000 99 9.90000 -27.7000 49.0000 TC 55 9 211
1982036S16060 1982 11 SI MM GABRIELLE 1982-02-09 03:00:00 TS -28.1146 48.7174 main 374 374 _____P______P_ -1 -28.1146 48.7174 99 -28.1146 48.7174 TC 50 10 218
1982036S16060 1982 11 SI MM GABRIELLE 1982-02-09 06:00:00 ET -28.5000 48.3000 36 991 reunion main 397 393 _____O______O_ -1 -28.5000 48.3000 5 36 991 3.00000 3.00000 -28.5000 48.3000 EX 45 991 12 232
1982036S16060 1982 11 SI MM GABRIELLE 1982-02-09 09:00:00 ET -28.8330 47.6734 main 411 407 _____P______P_ -1 -28.8330 47.6734 5 -28.8330 47.6734 EX 50 12 246
1982036S16060 1982 11 SI MM GABRIELLE 1982-02-09 12:00:00 TS -29.0000 47.0000 reunion main 407 379 _____O______O_ -1 -29.0000 47.0000 99 9.90000 -29.0000 47.0000 TC 55 12 268
1982036S16060 1982 11 SI MM GABRIELLE 1982-02-09 15:00:00 TS -28.8725 46.3262 main 376 349 _____P______P_ -1 -28.8725 46.3262 99 -28.8725 46.3262 TC 55 9 289
1982036S16060 1982 11 SI MM GABRIELLE 1982-02-09 18:00:00 TS -28.7000 46.0000 reunion main 349 349 _____O______O_ -1 -28.7000 46.0000 99 9.90000 -28.7000 46.0000 TC 55 2 24
1982036S16060 1982 11 SI MM GABRIELLE 1982-02-09 21:00:00 TS -28.6809 46.4251 main 357 357 _____P______P_ -1 -28.6809 46.4251 99 -28.6809 46.4251 TC 52 9 103
1982036S16060 1982 11 SI MM GABRIELLE 1982-02-10 00:00:00 TS -28.9000 47.0000 reunion main 397 397 _____O______O_ -1 -28.9000 47.0000 99 9.90000 -28.9000 47.0000 TC 50 9 143
1982036S16060 1982 11 SI MM GABRIELLE 1982-02-10 03:00:00 TS -29.4372 47.0682 main 452 452 _____P______P_ -1 -29.4372 47.0682 99 -29.4372 47.0682 TC 47 13 179
1982036S16060 1982 11 SI MM GABRIELLE 1982-02-10 06:00:00 ET -30.2000 47.0000 36 991 reunion main 534 534 _____O______O_ -1 -30.2000 47.0000 5 36 991 3.00000 3.00000 -30.2000 47.0000 EX 45 991 16 183
1982036S16060 1982 11 SI MM GABRIELLE 1982-02-10 09:00:00 ET -31.0198 46.9841 main 620 620 _____P______P_ -1 -31.0198 46.9841 5 -31.0198 46.9841 EX 45 17 177
1982036S16060 1982 11 SI MM GABRIELLE 1982-02-10 12:00:00 TS -31.9000 47.1000 reunion main 720 720 _____O______O_ -1 -31.9000 47.1000 99 9.90000 -31.9000 47.1000 TC 45 18 168
1982036S16060 1982 11 SI MM GABRIELLE 1982-02-10 15:00:00 TS -32.7566 47.4162 main 824 824 _____P______P_ -1 -32.7566 47.4162 99 -32.7566 47.4162 TC 45 19 156
1982036S16060 1982 11 SI MM GABRIELLE 1982-02-10 18:00:00 TS -33.6000 48.0000 reunion main 924 924 _____O______O_ -1 -33.6000 48.0000 99 9.90000 -33.6000 48.0000 TC 45 20 144
1982036S16060 1982 11 SI MM GABRIELLE 1982-02-10 21:00:00 TS -34.3929 48.8610 main 1034 1034 _____P______P_ -1 -34.3929 48.8610 99 -34.3929 48.8610 TC 45 22 136
1982036S16060 1982 11 SI MM GABRIELLE 1982-02-11 00:00:00 TS -35.2000 49.9000 reunion main 1150 1150 _____O______O_ -1 -35.2000 49.9000 99 9.90000 -35.2000 49.9000 TC 45 24 135
1982036S16060 1982 11 SI MM GABRIELLE 1982-02-11 03:00:00 TS -36.0787 50.9502 main 1280 1280 _____P______P_ -1 -36.0787 50.9502 99 -36.0787 50.9502 TC 40 25 137
1982036S16060 1982 11 SI MM GABRIELLE 1982-02-11 06:00:00 ET -37.0000 52.0000 28 997 reunion main 1405 _____O______O_ -1 -37.0000 52.0000 5 28 997 2.50000 2.50000 -37.0000 52.0000 EX 35 997 25 138

IBTrACS Databaseについて

本データベースは、米国NOAAが公開する1842年以降の世界の熱帯低気圧のベストトラックデータアーカイブInternational Best Track Archive for Climate Stewardship (IBTrACS)を、ウェブで閲覧しやすい形式に変換したものです。

最終更新日:2021-12-03